METAR Data
IDs: Format: Raw Decoded Include TAF

Data at: 2337 UTC 25 Jun 2019

LTAF 252320Z 16003KT 0600 R05/0700D R23/P1500U BCFG SCT012 25/25 Q1008 NOSIG